Time;durP1;ratioP1;P1;durP2;ratioP2;P2;SDS_P1;SDS_P2;PMS_P1;PMS_P2;Temp;Humidity;BMP_temperature;BMP_pressure;BME280_temperature;BME280_humidity;BME280_pressure;Samples;Min_cycle;Max_cycle;Signal;HPM_P1;HPM_P2
2021/12/26 00:01:50;;;;;;;10.60;6.03;;;11.60;79.20;;;;;;5060220;28;20392;-77
2021/12/26 00:04:19;;;;;;;10.53;5.73;;;11.70;79.30;;;;;;5054747;28;20218;-77
2021/12/26 00:06:48;;;;;;;11.83;5.97;;;11.70;79.20;;;;;;5062855;28;20198;-77
2021/12/26 00:09:16;;;;;;;10.97;6.17;;;11.70;79.30;;;;;;5061167;28;20190;-77
2021/12/26 00:11:45;;;;;;;10.83;5.77;;;11.70;79.40;;;;;;5048389;28;20729;-77
2021/12/26 00:14:13;;;;;;;8.77;5.77;;;11.60;79.30;;;;;;5056334;28;20195;-77
2021/12/26 00:16:43;;;;;;;10.40;5.70;;;11.60;79.30;;;;;;5048357;28;20194;-77
2021/12/26 00:19:13;;;;;;;12.43;6.77;;;11.60;79.40;;;;;;5056242;28;20193;-77
2021/12/26 00:21:41;;;;;;;12.00;6.40;;;11.60;79.50;;;;;;5065219;28;20675;-79
2021/12/26 00:24:10;;;;;;;9.87;5.93;;;11.60;79.60;;;;;;5059468;28;20707;-77
2021/12/26 00:26:39;;;;;;;12.03;6.27;;;11.60;79.60;;;;;;5066180;28;20190;-77
2021/12/26 00:29:07;;;;;;;9.90;6.07;;;11.60;79.60;;;;;;5047778;28;20199;-78
2021/12/26 00:31:36;;;;;;;11.93;5.47;;;11.60;79.70;;;;;;5063359;28;20240;-77
2021/12/26 00:34:05;;;;;;;11.47;5.87;;;11.60;79.60;;;;;;5064545;28;20245;-77
2021/12/26 00:36:34;;;;;;;11.87;5.83;;;11.50;79.60;;;;;;5062021;28;20209;-77
2021/12/26 00:39:03;;;;;;;11.77;6.03;;;11.50;79.60;;;;;;5063791;28;20194;-77
2021/12/26 00:41:31;;;;;;;10.17;5.47;;;11.50;79.50;;;;;;5063094;28;20198;-77
2021/12/26 00:44:00;;;;;;;9.50;5.63;;;11.50;79.60;;;;;;5059383;28;20206;-76
2021/12/26 00:46:28;;;;;;;9.77;6.07;;;11.60;79.60;;;;;;5062244;28;20203;-77
2021/12/26 00:49:14;;;;;;;12.00;5.90;;;11.60;79.50;;;;;;5058355;28;20189;-77
2021/12/26 00:51:44;;;;;;;7.90;5.30;;;11.60;79.60;;;;;;5055488;28;20218;-77
2021/12/26 00:54:12;;;;;;;13.33;5.67;;;11.60;79.50;;;;;;5057928;28;20195;-77
2021/12/26 00:56:41;;;;;;;9.77;6.00;;;11.60;79.50;;;;;;5061706;28;20194;-77
2021/12/26 00:59:10;;;;;;;10.90;5.80;;;11.60;79.40;;;;;;5060526;28;20194;-77
2021/12/26 01:01:38;;;;;;;13.17;7.30;;;11.60;79.50;;;;;;5064036;28;20579;-77
2021/12/26 01:04:07;;;;;;;11.57;7.07;;;11.60;79.70;;;;;;5057890;28;20259;-77
2021/12/26 01:06:36;;;;;;;13.00;6.67;;;11.60;79.70;;;;;;5061630;28;20278;-77
2021/12/26 01:09:08;;;;;;;14.83;7.40;;;11.50;80.60;;;;;;5060134;28;20199;-77
2021/12/26 01:11:39;;;;;;;14.23;7.13;;;11.50;80.90;;;;;;5063509;28;20206;-77
2021/12/26 01:14:11;;;;;;;13.67;7.43;;;11.50;81.50;;;;;;5056861;28;20560;-78
2021/12/26 01:16:43;;;;;;;12.83;7.47;;;11.50;81.30;;;;;;5063077;28;21219;-77
2021/12/26 01:19:14;;;;;;;12.80;7.30;;;11.50;80.50;;;;;;5059156;28;20183;-77
2021/12/26 01:21:45;;;;;;;13.53;7.93;;;11.50;79.40;;;;;;5058867;28;20666;-79
2021/12/26 01:24:15;;;;;;;14.13;7.83;;;11.40;78.30;;;;;;5059768;28;20198;-77
2021/12/26 01:26:44;;;;;;;13.07;7.77;;;11.40;77.40;;;;;;5062400;28;20222;-77
2021/12/26 01:29:13;;;;;;;12.80;7.07;;;11.30;76.80;;;;;;5059277;28;20187;-77
2021/12/26 01:31:41;;;;;;;13.73;7.63;;;11.30;76.60;;;;;;5061562;28;20221;-77
2021/12/26 01:34:10;;;;;;;12.57;6.90;;;11.20;76.40;;;;;;5062019;28;20198;-79
2021/12/26 01:36:38;;;;;;;12.07;6.83;;;11.20;76.20;;;;;;5057035;28;20187;-77
2021/12/26 01:39:09;;;;;;;14.10;6.97;;;11.10;76.10;;;;;;5062090;28;20193;-76
2021/12/26 01:41:42;;;;;;;15.43;7.83;;;11.00;76.20;;;;;;5063921;28;20266;-77
2021/12/26 01:44:12;;;;;;;11.43;7.00;;;11.00;76.30;;;;;;5059383;28;20191;-77
2021/12/26 01:46:43;;;;;;;13.23;7.17;;;11.00;77.10;;;;;;5053987;28;20210;-77
2021/12/26 01:49:13;;;;;;;13.67;7.20;;;10.90;76.10;;;;;;5055494;28;20198;-77
2021/12/26 01:51:44;;;;;;;11.73;6.90;;;10.70;75.60;;;;;;5054861;28;20218;-77
2021/12/26 01:54:16;;;;;;;12.47;7.10;;;10.70;75.80;;;;;;5052452;28;20191;-78
2021/12/26 01:56:46;;;;;;;12.57;7.63;;;10.60;75.70;;;;;;5051523;28;20183;-77
2021/12/26 01:59:14;;;;;;;10.97;6.80;;;10.60;75.70;;;;;;5062499;28;20197;-77
2021/12/26 02:01:44;;;;;;;11.10;7.50;;;10.50;75.80;;;;;;5055476;28;20206;-78
2021/12/26 02:04:13;;;;;;;12.23;6.80;;;10.40;76.00;;;;;;5050115;28;21053;-77
2021/12/26 02:06:43;;;;;;;13.47;8.07;;;10.40;76.10;;;;;;5051541;28;20199;-77
2021/12/26 02:09:12;;;;;;;12.03;7.07;;;10.30;76.10;;;;;;5059017;28;21686;-78
2021/12/26 02:11:41;;;;;;;11.80;7.43;;;10.30;76.10;;;;;;5060236;28;20222;-76
2021/12/26 02:14:11;;;;;;;13.20;7.00;;;10.20;76.10;;;;;;5058573;28;20198;-78
2021/12/26 02:16:40;;;;;;;12.53;7.07;;;10.20;76.10;;;;;;5043889;28;20197;-78
2021/12/26 02:19:09;;;;;;;12.17;7.20;;;10.20;76.00;;;;;;5060876;28;20206;-77
2021/12/26 02:21:58;;;;;;;13.00;7.30;;;10.10;75.70;;;;;;5062547;28;20202;-77
2021/12/26 02:24:33;;;;;;;12.33;6.70;;;10.10;75.60;;;;;;5057297;28;20194;-77
2021/12/26 02:29:47;;;;;;;12.07;6.40;;;10.00;75.50;;;;;;5052166;28;20186;-77
2021/12/26 02:32:15;;;;;;;9.90;5.93;;;9.80;75.50;;;;;;5058271;28;20244;-76
2021/12/26 02:34:44;;;;;;;12.57;7.15;;;9.80;75.60;;;;;;5047201;28;20449;-77
2021/12/26 02:37:13;;;;;;;9.97;6.13;;;9.70;75.80;;;;;;5050278;28;20203;-78
2021/12/26 02:39:42;;;;;;;10.93;6.17;;;9.70;76.20;;;;;;5049406;28;20781;-77
2021/12/26 02:42:10;;;;;;;9.97;6.63;;;9.60;76.30;;;;;;5062360;28;20187;-77
2021/12/26 02:44:39;;;;;;;9.90;6.20;;;9.60;76.20;;;;;;5060668;28;20205;-77
2021/12/26 02:47:07;;;;;;;10.37;6.33;;;9.60;76.30;;;;;;5060054;28;20732;-77
2021/12/26 02:49:35;;;;;;;11.03;5.73;;;9.50;76.30;;;;;;5053001;28;20199;-77
2021/12/26 02:52:04;;;;;;;10.30;6.30;;;9.50;76.30;;;;;;5056219;28;20803;-77
2021/12/26 02:54:34;;;;;;;9.00;5.83;;;9.40;76.40;;;;;;5058289;28;20197;-77
2021/12/26 02:57:03;;;;;;;10.83;6.03;;;9.40;76.30;;;;;;5060975;28;20197;-77
2021/12/26 02:59:32;;;;;;;11.10;6.30;;;9.30;76.50;;;;;;5049479;28;20696;-78
2021/12/26 03:02:01;;;;;;;12.03;5.60;;;9.30;76.60;;;;;;5056759;28;20193;-77
2021/12/26 03:04:29;;;;;;;11.67;6.67;;;9.20;76.80;;;;;;5059281;28;20218;-77
2021/12/26 03:07:02;;;;;;;9.60;5.50;;;9.20;77.10;;;;;;5058516;28;20198;-77
2021/12/26 03:09:40;;;;;;;7.03;4.63;;;9.10;77.00;;;;;;5058149;28;20203;-77
2021/12/26 03:12:11;;;;;;;8.60;5.27;;;9.10;77.00;;;;;;5050038;28;20245;-77
2021/12/26 03:14:40;;;;;;;9.87;5.80;;;9.00;77.10;;;;;;5060076;28;20659;-77
2021/12/26 03:17:09;;;;;;;9.83;5.63;;;9.00;77.00;;;;;;5061747;28;20258;-77
2021/12/26 03:19:37;;;;;;;10.57;5.63;;;9.00;77.00;;;;;;5056763;28;20186;-77
2021/12/26 03:22:06;;;;;;;8.77;5.13;;;9.00;77.00;;;;;;5053769;28;20196;-78
2021/12/26 03:24:37;;;;;;;9.30;5.40;;;9.00;76.90;;;;;;5055944;28;20244;-77
2021/12/26 03:27:07;;;;;;;10.13;4.63;;;8.90;77.00;;;;;;5054385;28;20216;-78
2021/12/26 03:29:37;;;;;;;9.03;5.00;;;8.80;77.00;;;;;;5049525;28;20217;-77
2021/12/26 03:32:06;;;;;;;10.63;5.10;;;8.80;77.00;;;;;;5057244;28;20213;-76
2021/12/26 03:34:35;;;;;;;7.27;4.60;;;8.70;77.10;;;;;;5054934;28;20189;-77
2021/12/26 03:37:03;;;;;;;8.07;4.13;;;8.70;77.20;;;;;;5060101;28;20214;-78
2021/12/26 03:39:32;;;;;;;6.97;4.37;;;8.70;77.30;;;;;;5058537;28;20185;-79
2021/12/26 03:42:00;;;;;;;6.50;4.20;;;8.70;77.20;;;;;;5062430;28;20289;-78
2021/12/26 03:44:29;;;;;;;8.17;4.17;;;8.60;77.10;;;;;;5059539;28;20201;-78
2021/12/26 03:46:58;;;;;;;7.00;4.23;;;8.60;77.20;;;;;;5062970;28;20665;-78
2021/12/26 03:49:27;;;;;;;6.93;4.13;;;8.60;77.20;;;;;;5061049;28;20216;-77
2021/12/26 03:51:56;;;;;;;8.03;4.77;;;8.60;77.30;;;;;;5052117;28;20198;-77
2021/12/26 03:54:24;;;;;;;8.17;4.73;;;8.60;77.30;;;;;;5063374;28;20515;-77
2021/12/26 03:56:53;;;;;;;6.43;3.97;;;8.60;77.20;;;;;;5066617;28;20194;-77
2021/12/26 03:59:21;;;;;;;6.23;3.90;;;8.70;77.20;;;;;;5065132;28;20201;-77
2021/12/26 04:01:50;;;;;;;7.47;4.27;;;8.70;77.10;;;;;;5064635;28;20195;-77
2021/12/26 04:04:20;;;;;;;9.27;4.40;;;8.70;77.10;;;;;;5056805;28;20242;-76
2021/12/26 04:06:48;;;;;;;7.47;4.37;;;8.70;77.10;;;;;;5066780;28;20220;-77
2021/12/26 04:09:17;;;;;;;8.67;4.63;;;8.60;77.00;;;;;;5064061;28;20196;-76
2021/12/26 04:11:46;;;;;;;8.33;4.53;;;8.60;77.90;;;;;;5062305;28;20194;-77
2021/12/26 04:14:16;;;;;;;7.00;4.53;;;8.60;77.00;;;;;;5064403;28;20190;-77
2021/12/26 04:16:45;;;;;;;8.23;4.03;;;8.60;77.20;;;;;;5051022;28;20269;-77
2021/12/26 04:19:13;;;;;;;8.30;4.33;;;8.60;77.20;;;;;;5051835;28;20308;-77
2021/12/26 04:21:43;;;;;;;8.57;4.33;;;8.60;77.30;;;;;;5060881;28;20198;-77
2021/12/26 04:24:12;;;;;;;7.57;4.60;;;8.60;77.40;;;;;;5066170;28;20205;-77
2021/12/26 04:26:41;;;;;;;9.93;4.23;;;8.50;77.30;;;;;;5051811;28;20198;-77
2021/12/26 04:29:10;;;;;;;10.50;4.53;;;8.50;77.30;;;;;;5060168;28;20196;-77
2021/12/26 04:31:39;;;;;;;9.23;4.20;;;8.50;77.00;;;;;;5064335;28;20198;-77
2021/12/26 04:34:07;;;;;;;7.73;4.20;;;8.50;77.00;;;;;;5047842;28;20220;-76
2021/12/26 04:36:36;;;;;;;9.73;4.93;;;8.50;77.00;;;;;;5053726;28;20204;-76
2021/12/26 04:39:06;;;;;;;7.87;4.50;;;8.40;77.10;;;;;;5062846;28;20878;-77
2021/12/26 04:41:34;;;;;;;8.67;5.30;;;8.40;77.30;;;;;;5065663;28;20201;-78
2021/12/26 04:44:03;;;;;;;10.27;5.23;;;8.30;77.60;;;;;;5051289;28;20198;-76
2021/12/26 04:46:31;;;;;;;8.70;4.97;;;8.30;77.60;;;;;;5058389;28;20192;-76
2021/12/26 04:49:00;;;;;;;6.63;3.90;;;8.30;77.70;;;;;;5061662;28;20287;-76
2021/12/26 04:51:28;;;;;;;9.40;4.80;;;8.30;77.80;;;;;;5058650;28;20284;-76
2021/12/26 04:53:56;;;;;;;9.87;4.83;;;8.30;77.90;;;;;;5048428;28;20228;-77
2021/12/26 04:56:26;;;;;;;9.83;5.27;;;8.30;77.90;;;;;;5048549;28;20219;-76
2021/12/26 04:58:55;;;;;;;10.53;5.10;;;8.20;78.60;;;;;;5062072;28;20220;-77
2021/12/26 05:01:23;;;;;;;12.23;5.20;;;8.20;77.90;;;;;;5048135;28;20201;-77
2021/12/26 05:03:52;;;;;;;11.47;5.43;;;8.10;77.80;;;;;;5057475;28;20301;-76
2021/12/26 05:06:21;;;;;;;9.60;4.77;;;8.10;78.20;;;;;;5048252;28;20202;-76
2021/12/26 05:08:49;;;;;;;7.77;4.10;;;8.10;78.10;;;;;;5063644;28;20656;-77
2021/12/26 05:11:17;;;;;;;7.63;4.60;;;8.00;78.20;;;;;;5057574;28;20193;-76
2021/12/26 05:13:47;;;;;;;8.80;4.77;;;7.90;78.50;;;;;;5059791;28;20224;-77
2021/12/26 05:16:16;;;;;;;9.67;5.50;;;7.90;78.50;;;;;;5048484;28;20436;-77
2021/12/26 05:18:44;;;;;;;11.13;5.00;;;7.90;79.20;;;;;;5063969;28;20446;-76
2021/12/26 05:21:13;;;;;;;9.13;4.97;;;7.90;79.20;;;;;;5060792;28;20297;-77
2021/12/26 05:23:41;;;;;;;10.33;5.03;;;7.80;79.50;;;;;;5060405;28;20189;-77
2021/12/26 05:26:09;;;;;;;13.10;5.73;;;7.80;79.40;;;;;;5050807;28;20197;-78
2021/12/26 05:28:38;;;;;;;9.90;5.00;;;7.70;79.90;;;;;;5061448;28;20193;-77
2021/12/26 05:31:08;;;;;;;10.13;5.03;;;7.70;79.90;;;;;;5051674;28;20194;-76
2021/12/26 05:33:37;;;;;;;12.80;5.80;;;7.70;80.00;;;;;;5055207;28;20214;-79
2021/12/26 05:36:05;;;;;;;11.47;5.43;;;7.70;80.00;;;;;;5052520;28;20195;-80
2021/12/26 05:38:34;;;;;;;11.63;4.83;;;7.60;80.00;;;;;;5061744;28;20195;-80
2021/12/26 05:41:02;;;;;;;10.37;4.83;;;7.60;80.40;;;;;;5057128;28;20212;-79
2021/12/26 05:43:31;;;;;;;10.27;5.30;;;7.60;80.50;;;;;;5060464;28;20190;-79
2021/12/26 05:45:59;;;;;;;8.63;5.03;;;7.60;80.60;;;;;;5059740;28;20196;-78
2021/12/26 05:48:29;;;;;;;10.90;5.43;;;7.60;80.60;;;;;;5056771;28;20694;-77
2021/12/26 05:50:57;;;;;;;10.27;5.10;;;7.50;80.50;;;;;;5054269;28;20600;-76
2021/12/26 05:53:26;;;;;;;13.77;6.07;;;7.50;80.50;;;;;;5053526;28;20211;-77
2021/12/26 05:55:54;;;;;;;12.03;5.43;;;7.50;80.60;;;;;;5058456;28;20191;-77
2021/12/26 05:58:23;;;;;;;11.00;5.23;;;7.50;80.50;;;;;;5054527;28;20206;-76
2021/12/26 06:00:51;;;;;;;14.40;5.77;;;7.50;80.60;;;;;;5058924;28;20200;-79
2021/12/26 06:03:20;;;;;;;11.07;5.40;;;7.50;80.80;;;;;;5052648;28;20233;-78
2021/12/26 06:05:49;;;;;;;11.50;5.90;;;7.50;80.90;;;;;;5055808;28;20188;-78
2021/12/26 06:08:18;;;;;;;14.13;5.50;;;7.50;80.80;;;;;;5052636;28;20195;-78
2021/12/26 06:10:47;;;;;;;12.07;5.03;;;7.50;81.20;;;;;;5055255;28;20686;-78
2021/12/26 06:13:16;;;;;;;12.37;6.03;;;7.50;81.20;;;;;;5054458;28;20230;-77
2021/12/26 06:15:44;;;;;;;8.33;5.07;;;7.50;80.90;;;;;;5062306;28;20535;-79
2021/12/26 06:18:13;;;;;;;10.00;4.70;;;7.40;80.90;;;;;;5059808;28;20693;-79
2021/12/26 06:20:41;;;;;;;11.47;5.67;;;7.40;81.10;;;;;;5060671;28;20197;-79
2021/12/26 06:23:12;;;;;;;10.33;4.90;;;7.40;81.10;;;;;;5062122;28;20188;-79
2021/12/26 06:25:41;;;;;;;12.13;5.03;;;7.40;81.20;;;;;;5053547;28;20188;-79
2021/12/26 06:28:09;;;;;;;10.47;5.03;;;7.40;81.10;;;;;;5046741;28;20190;-78
2021/12/26 06:30:37;;;;;;;11.27;4.97;;;7.30;81.10;;;;;;5053818;28;20209;-79
2021/12/26 06:33:06;;;;;;;12.27;5.03;;;7.30;81.30;;;;;;5061671;28;20202;-79
2021/12/26 06:35:35;;;;;;;9.80;5.17;;;7.30;81.40;;;;;;5050693;28;20193;-77
2021/12/26 06:38:04;;;;;;;17.10;5.80;;;7.30;81.20;;;;;;5048477;28;20196;-78
2021/12/26 06:40:34;;;;;;;11.47;4.87;;;7.20;81.30;;;;;;5049090;28;20221;-79
2021/12/26 06:43:02;;;;;;;11.47;5.67;;;7.30;81.30;;;;;;5052060;28;20540;-78
2021/12/26 06:45:31;;;;;;;10.20;4.70;;;7.30;82.20;;;;;;5058452;28;20194;-77
2021/12/26 06:48:02;;;;;;;14.00;5.20;;;7.30;81.50;;;;;;5047387;28;20280;-78
2021/12/26 06:50:31;;;;;;;11.57;5.33;;;7.40;81.20;;;;;;5051553;28;20214;-79
2021/12/26 06:52:59;;;;;;;13.60;5.60;;;7.40;81.20;;;;;;5054959;28;20196;-82
2021/12/26 06:55:27;;;;;;;13.37;6.40;;;7.40;80.90;;;;;;5048581;28;20956;-79
2021/12/26 06:57:57;;;;;;;13.87;6.37;;;7.40;80.70;;;;;;5057888;28;20199;-79
2021/12/26 07:00:26;;;;;;;11.47;6.00;;;7.40;80.90;;;;;;5043607;28;20416;-79
2021/12/26 07:02:54;;;;;;;11.63;5.57;;;7.40;81.30;;;;;;5045418;28;21050;-79
2021/12/26 07:05:23;;;;;;;10.17;5.17;;;7.40;81.10;;;;;;5050075;28;20179;-79
2021/12/26 07:07:51;;;;;;;9.87;4.47;;;7.40;80.90;;;;;;5050225;28;20197;-78
2021/12/26 07:10:20;;;;;;;13.13;5.45;;;7.30;80.40;;;;;;5044528;28;20930;-78
2021/12/26 07:12:48;;;;;;;10.20;4.70;;;7.40;80.70;;;;;;5050503;28;20197;-79
2021/12/26 07:15:18;;;;;;;11.27;5.23;;;7.30;80.90;;;;;;5053722;28;20917;-79
2021/12/26 07:17:51;;;;;;;10.40;5.90;;;7.30;80.80;;;;;;5063387;28;20212;-78
2021/12/26 07:20:20;;;;;;;13.90;5.10;;;7.40;80.80;;;;;;5060360;28;20609;-80
2021/12/26 07:22:48;;;;;;;10.40;5.20;;;7.30;80.50;;;;;;5067427;28;20192;-80
2021/12/26 07:25:17;;;;;;;10.57;5.00;;;7.40;80.60;;;;;;5066105;28;20198;-79
2021/12/26 07:27:45;;;;;;;14.23;5.73;;;7.30;80.50;;;;;;5068772;28;20207;-79
2021/12/26 07:30:14;;;;;;;9.77;4.90;;;7.40;80.60;;;;;;5064398;28;20802;-79
2021/12/26 07:32:43;;;;;;;10.10;4.77;;;7.40;80.70;;;;;;5066642;28;20199;-79
2021/12/26 07:35:12;;;;;;;9.30;5.07;;;7.40;80.60;;;;;;5055097;28;20223;-80
2021/12/26 07:37:41;;;;;;;8.83;4.97;;;7.40;80.60;;;;;;5063943;28;20191;-80
2021/12/26 07:40:11;;;;;;;17.03;5.90;;;7.40;80.50;;;;;;5067275;28;20191;-78
2021/12/26 07:42:41;;;;;;;15.40;5.60;;;7.40;80.40;;;;;;5050580;28;20770;-78
2021/12/26 07:45:10;;;;;;;10.20;5.23;;;7.40;80.50;;;;;;5049436;28;20837;-78
2021/12/26 07:47:39;;;;;;;11.45;5.70;;;7.40;80.40;;;;;;5048466;28;20421;-80
2021/12/26 07:50:10;;;;;;;11.83;5.67;;;7.50;80.50;;;;;;5066091;28;20212;-78
2021/12/26 07:52:41;;;;;;;11.87;4.60;;;7.50;80.50;;;;;;5065870;28;20248;-78
2021/12/26 07:55:13;;;;;;;8.43;4.47;;;7.50;80.40;;;;;;5063421;28;20691;-80
2021/12/26 07:57:44;;;;;;;10.87;5.20;;;7.50;80.00;;;;;;5064634;28;20199;-81
2021/12/26 08:00:13;;;;;;;10.53;5.27;;;7.40;79.80;;;;;;5063800;28;20175;-79
2021/12/26 08:02:42;;;;;;;9.17;4.83;;;7.40;80.00;;;;;;5065139;28;20200;-79
2021/12/26 08:05:12;;;;;;;7.97;4.40;;;7.40;80.20;;;;;;5073632;28;20182;-78
2021/12/26 08:07:41;;;;;;;9.90;4.63;;;7.40;80.20;;;;;;5072042;28;20189;-82
2021/12/26 08:10:10;;;;;;;9.37;4.80;;;7.30;80.10;;;;;;5066058;28;20195;-81
2021/12/26 08:12:38;;;;;;;12.30;5.00;;;7.30;80.20;;;;;;5066021;28;20200;-80
2021/12/26 08:15:07;;;;;;;10.10;4.93;;;7.40;80.40;;;;;;5065766;28;20214;-82
2021/12/26 08:17:38;;;;;;;9.80;5.40;;;7.30;80.80;;;;;;5065383;28;20200;-82
2021/12/26 08:20:08;;;;;;;8.97;4.37;;;7.30;80.60;;;;;;5065586;28;20192;-82
2021/12/26 08:22:38;;;;;;;10.60;5.00;;;7.30;80.50;;;;;;5066760;28;20202;-80
2021/12/26 08:25:07;;;;;;;11.50;4.47;;;7.30;80.50;;;;;;5066172;28;20408;-81
2021/12/26 08:27:36;;;;;;;9.33;4.90;;;7.30;80.50;;;;;;5065622;28;20537;-80
2021/12/26 08:30:05;;;;;;;10.53;5.00;;;7.30;80.60;;;;;;5065384;28;20195;-82
2021/12/26 08:32:37;;;;;;;10.03;5.07;;;7.30;80.60;;;;;;5065036;28;20560;-81
2021/12/26 08:35:07;;;;;;;9.00;4.70;;;7.20;80.50;;;;;;5066090;28;20211;-78
2021/12/26 08:37:37;;;;;;;12.10;5.07;;;7.20;80.60;;;;;;5064956;28;20188;-78
2021/12/26 08:40:07;;;;;;;7.87;4.03;;;7.20;80.50;;;;;;5065561;28;20201;-77
2021/12/26 08:42:36;;;;;;;11.40;5.10;;;7.10;80.90;;;;;;5082401;28;20202;-78
2021/12/26 08:45:05;;;;;;;12.10;5.00;;;7.10;81.30;;;;;;5085777;28;20186;-77
2021/12/26 08:47:33;;;;;;;12.77;5.53;;;7.10;81.10;;;;;;5084590;28;20302;-77
2021/12/26 08:50:02;;;;;;;10.97;5.80;;;7.10;81.10;;;;;;5045619;28;20199;-77
2021/12/26 08:52:30;;;;;;;10.43;6.30;;;7.00;81.20;;;;;;5045547;28;20188;-77
2021/12/26 08:54:59;;;;;;;12.17;5.60;;;7.00;81.30;;;;;;5045090;28;20744;-77
2021/12/26 08:57:29;;;;;;;10.70;5.03;;;7.00;81.60;;;;;;5064275;28;20187;-77
2021/12/26 08:59:57;;;;;;;8.07;4.80;;;7.00;81.70;;;;;;5064741;28;20190;-77
2021/12/26 09:02:27;;;;;;;8.87;4.80;;;7.00;81.50;;;;;;5073770;28;20205;-79
2021/12/26 09:04:55;;;;;;;8.27;4.73;;;7.00;81.60;;;;;;5069559;28;20571;-76
2021/12/26 09:07:23;;;;;;;10.30;5.37;;;7.00;81.40;;;;;;5065413;28;20207;-77
2021/12/26 09:09:53;;;;;;;9.93;4.80;;;7.00;81.40;;;;;;5064113;28;20195;-78
2021/12/26 09:12:21;;;;;;;10.33;4.57;;;7.00;81.40;;;;;;5064495;28;20195;-77
2021/12/26 09:14:51;;;;;;;9.57;4.37;;;7.10;81.40;;;;;;5064634;28;20202;-77
2021/12/26 09:17:19;;;;;;;7.70;4.33;;;7.10;81.30;;;;;;5065253;28;20192;-78
2021/12/26 09:19:48;;;;;;;6.00;3.60;;;7.00;81.00;;;;;;5068435;28;20189;-77
2021/12/26 09:22:17;;;;;;;10.23;5.33;;;7.10;81.10;;;;;;5071557;28;20195;-78
2021/12/26 09:24:46;;;;;;;7.17;4.10;;;7.10;81.10;;;;;;5064772;28;20198;-78
2021/12/26 09:27:16;;;;;;;9.50;4.00;;;7.10;81.30;;;;;;5065491;28;20641;-77
2021/12/26 09:29:45;;;;;;;12.60;4.70;;;7.10;81.20;;;;;;5064153;28;20196;-77
2021/12/26 09:32:15;;;;;;;10.13;4.83;;;7.10;81.10;;;;;;5065013;28;20200;-77
2021/12/26 09:34:43;;;;;;;12.27;5.07;;;7.10;81.10;;;;;;5065394;28;20206;-77
2021/12/26 09:37:12;;;;;;;11.37;5.20;;;7.20;81.10;;;;;;5064971;28;20186;-77
2021/12/26 09:39:40;;;;;;;8.53;4.70;;;7.20;81.00;;;;;;5064079;28;20226;-77
2021/12/26 09:42:09;;;;;;;8.63;4.87;;;7.20;80.70;;;;;;5062992;28;20195;-76
2021/12/26 09:44:38;;;;;;;6.43;4.23;;;7.20;80.50;;;;;;5044854;28;20619;-76
2021/12/26 09:47:08;;;;;;;8.20;3.87;;;7.20;80.70;;;;;;5046490;28;20192;-76
2021/12/26 09:49:38;;;;;;;8.50;4.03;;;7.30;80.70;;;;;;5058030;28;20221;-75
2021/12/26 09:52:08;;;;;;;8.47;4.20;;;7.30;80.70;;;;;;5052969;28;20188;-75
2021/12/26 09:54:36;;;;;;;8.20;4.07;;;7.30;80.80;;;;;;5052582;28;20206;-75
2021/12/26 09:57:06;;;;;;;7.50;4.10;;;7.40;80.60;;;;;;5060632;28;20238;-76
2021/12/26 09:59:34;;;;;;;10.90;4.80;;;7.40;80.30;;;;;;5056684;28;20204;-75
2021/12/26 10:02:09;;;;;;;9.80;5.07;;;7.40;80.50;;;;;;5054507;28;20712;-76
2021/12/26 10:04:49;;;;;;;9.93;5.00;;;7.40;80.50;;;;;;5048451;28;20718;-76
2021/12/26 10:07:23;;;;;;;9.53;4.83;;;7.40;80.50;;;;;;5063447;28;20716;-76
2021/12/26 10:09:53;;;;;;;9.87;5.60;;;7.40;80.50;;;;;;5062185;28;20197;-77
2021/12/26 10:12:23;;;;;;;10.13;4.73;;;7.40;80.50;;;;;;5044188;28;20204;-76
2021/12/26 10:14:53;;;;;;;9.83;4.93;;;7.40;80.60;;;;;;5059936;28;20222;-76
2021/12/26 10:17:26;;;;;;;8.87;5.00;;;7.30;80.50;;;;;;5056309;28;20250;-76
2021/12/26 10:20:04;;;;;;;10.50;4.67;;;7.30;80.50;;;;;;5062623;28;20214;-76
2021/12/26 10:22:32;;;;;;;7.87;4.20;;;7.30;80.60;;;;;;5062356;28;20769;-77
2021/12/26 10:25:08;;;;;;;10.00;5.37;;;7.30;80.60;;;;;;5063555;28;20196;-77
2021/12/26 10:27:37;;;;;;;11.37;5.00;;;7.30;80.90;;;;;;5053337;28;20200;-77
2021/12/26 10:30:07;;;;;;;9.70;5.33;;;7.30;80.80;;;;;;5052916;28;20223;-76
2021/12/26 10:32:38;;;;;;;9.77;5.50;;;7.30;81.10;;;;;;5046152;28;20205;-76
2021/12/26 10:35:10;;;;;;;9.47;5.03;;;7.30;80.90;;;;;;5056754;28;20191;-77
2021/12/26 10:37:40;;;;;;;13.07;6.30;;;7.30;81.20;;;;;;5047776;28;20447;-77
2021/12/26 10:40:12;;;;;;;9.93;5.27;;;7.30;81.80;;;;;;5049213;28;20201;-76
2021/12/26 10:42:45;;;;;;;12.50;6.03;;;7.30;81.90;;;;;;5060447;28;20725;-77
2021/12/26 10:45:20;;;;;;;10.73;5.47;;;7.30;81.90;;;;;;5048413;28;20197;-76
2021/12/26 10:47:53;;;;;;;10.30;4.50;;;7.40;81.80;;;;;;5044273;28;20548;-77
2021/12/26 10:50:25;;;;;;;8.23;4.63;;;7.30;81.00;;;;;;5061104;28;20272;-76
2021/12/26 10:52:55;;;;;;;7.67;3.97;;;7.40;80.90;;;;;;5063078;28;20194;-77
2021/12/26 10:55:28;;;;;;;8.20;3.80;;;7.40;80.70;;;;;;5065816;28;20362;-77
2021/12/26 10:57:57;;;;;;;8.33;4.07;;;7.40;80.50;;;;;;5044935;28;20185;-77
2021/12/26 11:00:29;;;;;;;8.53;4.50;;;7.40;80.60;;;;;;5056474;28;20282;-76
2021/12/26 11:03:00;;;;;;;7.07;4.10;;;7.40;80.60;;;;;;5064215;28;20222;-76
2021/12/26 11:05:35;;;;;;;6.80;3.67;;;7.40;80.60;;;;;;5082403;28;20190;-77
2021/12/26 11:08:05;;;;;;;7.80;4.10;;;7.40;80.60;;;;;;5084634;28;20176;-76
2021/12/26 11:10:35;;;;;;;10.90;5.00;;;7.50;80.70;;;;;;5084707;28;20278;-76
2021/12/26 11:13:06;;;;;;;9.27;4.73;;;7.50;80.70;;;;;;5074297;28;20443;-77
2021/12/26 11:15:36;;;;;;;8.60;3.90;;;7.50;80.90;;;;;;5075046;28;20182;-76
2021/12/26 11:18:07;;;;;;;7.23;3.70;;;7.50;80.80;;;;;;5082663;28;20187;-77
2021/12/26 11:20:39;;;;;;;9.03;3.87;;;7.50;80.50;;;;;;5080563;28;20855;-76
2021/12/26 11:23:10;;;;;;;9.17;4.53;;;7.50;81.00;;;;;;5072887;28;20282;-76
2021/12/26 11:25:42;;;;;;;8.73;4.73;;;7.50;80.20;;;;;;5080625;28;20190;-75
2021/12/26 11:28:12;;;;;;;9.03;4.03;;;7.50;80.30;;;;;;5071942;28;20192;-77
2021/12/26 11:30:40;;;;;;;6.90;3.90;;;7.50;80.40;;;;;;5063939;28;20203;-76
2021/12/26 11:33:10;;;;;;;8.20;4.30;;;7.50;80.50;;;;;;5072331;28;20199;-76
2021/12/26 11:35:41;;;;;;;10.53;4.83;;;7.50;80.30;;;;;;5065055;28;20202;-76
2021/12/26 11:38:12;;;;;;;8.03;4.37;;;7.50;80.30;;;;;;5068415;28;20217;-77
2021/12/26 11:40:42;;;;;;;11.50;5.37;;;7.50;80.50;;;;;;5078303;28;20871;-76
2021/12/26 11:43:45;;;;;;;8.20;4.77;;;7.50;80.40;;;;;;5066883;28;20792;-76
2021/12/26 11:46:25;;;;;;;7.87;3.73;;;7.50;80.60;;;;;;5067661;28;20195;-76
2021/12/26 11:49:12;;;;;;;7.87;4.20;;;7.50;80.10;;;;;;5078459;28;20215;-76
2021/12/26 11:52:03;;;;;;;9.20;4.00;;;7.40;79.80;;;;;;5061894;28;20714;-76
2021/12/26 11:54:53;;;;;;;11.40;4.63;;;7.40;79.90;;;;;;5070814;28;20185;-76
2021/12/26 11:57:51;;;;;;;14.27;5.50;;;7.40;80.10;;;;;;5082050;28;20221;-77
2021/12/26 12:00:24;;;;;;;10.37;5.23;;;7.40;80.00;;;;;;5077296;28;20559;-77
2021/12/26 12:02:54;;;;;;;18.47;8.37;;;7.40;80.20;;;;;;5081968;28;20873;-77
2021/12/26 12:05:25;;;;;;;12.80;6.40;;;7.40;80.40;;;;;;5081729;28;20602;-77
2021/12/26 12:07:58;;;;;;;11.80;6.67;;;7.40;80.50;;;;;;5083971;28;20184;-77
2021/12/26 12:10:40;;;;;;;8.57;4.93;;;7.40;80.50;;;;;;5085708;28;20567;-77
2021/12/26 12:13:11;;;;;;;12.17;6.43;;;7.40;80.50;;;;;;5084179;28;20184;-77
2021/12/26 12:15:58;;;;;;;14.67;6.80;;;7.40;80.60;;;;;;5073790;28;20193;-77
2021/12/26 12:18:29;;;;;;;15.00;7.07;;;7.40;80.70;;;;;;5070283;28;20211;-76
2021/12/26 12:21:17;;;;;;;12.07;6.87;;;7.40;80.80;;;;;;5082412;28;20197;-76
2021/12/26 12:24:01;;;;;;;10.80;6.00;;;7.30;80.80;;;;;;5077547;28;20192;-77
2021/12/26 12:26:48;;;;;;;13.53;5.77;;;7.30;80.80;;;;;;5080022;28;20186;-77
2021/12/26 12:29:57;;;;;;;12.90;6.50;;;7.30;80.60;;;;;;5073480;28;20190;-76
2021/12/26 12:32:27;;;;;;;11.00;5.17;;;7.30;80.60;;;;;;5075007;28;20199;-76
2021/12/26 12:34:58;;;;;;;11.37;5.20;;;7.30;80.70;;;;;;5079191;28;20200;-77
2021/12/26 12:37:36;;;;;;;10.63;5.10;;;7.20;80.60;;;;;;5085121;28;20723;-76
2021/12/26 12:40:25;;;;;;;12.90;6.53;;;7.20;80.60;;;;;;5087554;28;20186;-76
2021/12/26 12:43:06;;;;;;;13.80;7.73;;;7.20;80.70;;;;;;5081462;28;20809;-76
2021/12/26 12:46:01;;;;;;;25.77;12.97;;;7.20;81.00;;;;;;5073477;28;20215;-76
2021/12/26 12:48:33;;;;;;;12.53;6.37;;;7.20;81.00;;;;;;5077458;28;20890;-77
2021/12/26 12:51:24;;;;;;;13.13;6.93;;;7.20;81.00;;;;;;5073375;28;20748;-76
2021/12/26 12:53:55;;;;;;;11.73;6.63;;;7.20;80.90;;;;;;5080491;28;20276;-77
2021/12/26 12:56:46;;;;;;;9.80;4.80;;;7.20;81.00;;;;;;5086625;28;20189;-76
2021/12/26 12:59:36;;;;;;;10.03;4.63;;;7.20;80.70;;;;;;5083657;28;20205;-76
2021/12/26 13:02:08;;;;;;;9.67;5.57;;;7.10;80.70;;;;;;5082813;28;20174;-76
2021/12/26 13:04:50;;;;;;;9.37;5.10;;;7.10;80.70;;;;;;5080097;28;20215;-76
2021/12/26 13:07:21;;;;;;;9.60;5.07;;;7.10;80.60;;;;;;5081230;28;20800;-76
2021/12/26 13:09:52;;;;;;;9.57;4.77;;;7.00;80.70;;;;;;5079698;28;20186;-77